Time;durP1;ratioP1;P1;durP2;ratioP2;P2;SDS_P1;SDS_P2;PMS_P1;PMS_P2;Temp;Humidity;BMP_temperature;BMP_pressure;BME280_temperature;BME280_humidity;BME280_pressure;Samples;Min_cycle;Max_cycle;Signal;HPM_P1;HPM_P2
2024/02/18 00:02:17;;;;;;;45.75;21.77;;;;;;;2.15;100.00;98585.47;5058277;28;20028;-78
2024/02/18 00:04:43;;;;;;;46.10;21.27;;;;;;;1.95;100.00;98576.06;5089789;28;20036;-78
2024/02/18 00:07:08;;;;;;;43.20;21.10;;;;;;;2.04;100.00;98597.94;5074105;28;20028;-76
2024/02/18 00:09:34;;;;;;;43.25;19.45;;;;;;;1.96;100.00;98593.66;5065904;28;20058;-78
2024/02/18 00:12:00;;;;;;;42.90;20.15;;;;;;;1.89;100.00;98587.56;5054660;28;20097;-78
2024/02/18 00:14:25;;;;;;;44.92;18.98;;;;;;;1.75;100.00;98568.38;5052740;28;20023;-76
2024/02/18 00:16:51;;;;;;;40.28;19.65;;;;;;;1.83;100.00;98582.34;5078380;28;20024;-77
2024/02/18 00:19:17;;;;;;;45.35;18.88;;;;;;;1.93;100.00;98585.78;5072739;28;20544;-77
2024/02/18 00:21:42;;;;;;;40.85;18.30;;;;;;;1.89;100.00;98568.22;5064387;28;20044;-78
2024/02/18 00:24:08;;;;;;;45.38;21.33;;;;;;;1.90;100.00;98577.88;5088266;28;20455;-77
2024/02/18 00:26:36;;;;;;;43.53;19.05;;;;;;;1.94;100.00;98584.88;5082357;28;20433;-78
2024/02/18 00:29:06;;;;;;;43.92;19.38;;;;;;;1.93;100.00;98573.47;5052745;28;20040;-78
2024/02/18 00:31:32;;;;;;;40.17;19.02;;;;;;;1.94;100.00;98579.63;5054325;28;20540;-78
2024/02/18 00:33:57;;;;;;;44.10;19.33;;;;;;;1.90;100.00;98577.88;5052208;28;20112;-78
2024/02/18 00:36:23;;;;;;;37.05;18.13;;;;;;;1.81;100.00;98568.31;5072871;28;20028;-78
2024/02/18 00:38:49;;;;;;;46.90;19.95;;;;;;;1.81;100.00;98572.72;5055402;28;20032;-77
2024/02/18 00:41:14;;;;;;;42.33;19.52;;;;;;;1.81;100.00;98578.00;5063254;28;20031;-78
2024/02/18 00:43:40;;;;;;;40.05;18.95;;;;;;;1.77;100.00;98571.00;5066604;28;20029;-77
2024/02/18 00:46:06;;;;;;;37.67;18.17;;;;;;;1.87;100.00;98578.81;5068833;28;20033;-77
2024/02/18 00:48:31;;;;;;;43.35;19.02;;;;;;;1.89;100.00;98587.56;5056841;28;20066;-78
2024/02/18 00:50:57;;;;;;;39.85;18.60;;;;;;;1.80;100.00;98573.59;5062675;28;20060;-78
2024/02/18 00:53:22;;;;;;;40.75;19.33;;;;;;;1.77;100.00;98568.34;5059228;28;20121;-77
2024/02/18 00:55:48;;;;;;;35.75;18.00;;;;;;;1.71;100.00;98566.66;5060348;28;20386;-78
2024/02/18 00:58:14;;;;;;;40.55;17.67;;;;;;;1.75;100.00;98571.03;5052279;28;20392;-77
2024/02/18 01:00:40;;;;;;;41.97;18.60;;;;;;;1.75;100.00;98578.94;5075748;28;20039;-77
2024/02/18 01:03:07;;;;;;;42.67;19.67;;;;;;;1.65;100.00;98577.28;5071864;28;20038;-78
2024/02/18 01:05:35;;;;;;;44.85;18.75;;;;;;;1.70;100.00;98579.84;5066708;28;20028;-77
2024/02/18 01:08:00;;;;;;;49.55;19.27;;;;;;;1.62;100.00;98567.63;5051806;28;20021;-78
2024/02/18 01:10:26;;;;;;;35.33;17.38;;;;;;;1.62;100.00;98578.19;5079031;28;20411;-79
2024/02/18 01:12:52;;;;;;;33.83;16.95;;;;;;;1.58;100.00;98565.91;5055729;28;20016;-78
2024/02/18 01:15:17;;;;;;;37.35;16.75;;;;;;;1.52;100.00;98563.34;5070116;28;20037;-78
2024/02/18 01:17:43;;;;;;;37.83;17.50;;;;;;;1.50;100.00;98565.13;5062242;28;20024;-78
2024/02/18 01:20:09;;;;;;;38.85;17.42;;;;;;;1.58;100.00;98571.19;5071809;28;20036;-77
2024/02/18 01:22:35;;;;;;;39.30;16.83;;;;;;;1.51;100.00;98558.94;5062366;28;20032;-77
2024/02/18 01:25:04;;;;;;;40.00;16.98;;;;;;;1.57;100.00;98555.38;5063423;28;20079;-77
2024/02/18 01:27:29;;;;;;;39.85;17.15;;;;;;;1.64;100.00;98563.22;5080702;28;20035;-77
2024/02/18 01:29:55;;;;;;;42.03;17.95;;;;;;;1.69;100.00;98562.31;5057251;28;20104;-78
2024/02/18 01:32:20;;;;;;;39.05;17.73;;;;;;;1.70;100.00;98559.63;5073788;28;20434;-78
2024/02/18 01:34:46;;;;;;;39.83;18.52;;;;;;;1.58;100.00;98550.09;5078893;28;20025;-78
2024/02/18 01:37:12;;;;;;;41.65;18.70;;;;;;;1.52;100.00;98550.16;5055150;28;20385;-77
2024/02/18 01:39:38;;;;;;;41.67;17.58;;;;;;;1.55;100.00;98554.53;5055538;28;20032;-78
2024/02/18 01:42:03;;;;;;;40.47;17.42;;;;;;;1.53;100.00;98561.59;5064263;28;20020;-77
2024/02/18 01:44:29;;;;;;;38.25;17.98;;;;;;;1.47;100.00;98562.53;5071181;28;20058;-77
2024/02/18 01:46:55;;;;;;;38.70;19.65;;;;;;;1.50;100.00;98569.53;5056823;28;20527;-78
2024/02/18 01:49:20;;;;;;;50.60;20.75;;;;;;;1.33;100.00;98569.66;5057579;28;20506;-77
2024/02/18 01:51:47;;;;;;;49.67;20.95;;;;;;;1.36;100.00;98559.09;5075292;28;20472;-77
2024/02/18 01:54:12;;;;;;;40.50;18.98;;;;;;;1.33;100.00;98560.88;5065434;28;20542;-77
2024/02/18 01:56:39;;;;;;;40.95;19.52;;;;;;;1.34;100.00;98560.88;5068222;28;20028;-77
2024/02/18 01:59:05;;;;;;;36.10;16.33;;;;;;;1.19;100.00;98555.75;5074911;28;20050;-78
2024/02/18 02:01:31;;;;;;;33.05;15.02;;;;;;;1.11;100.00;98549.66;5054915;28;20040;-77
2024/02/18 02:03:57;;;;;;;33.05;15.25;;;;;;;1.01;100.00;98556.78;5054850;28;20464;-77
2024/02/18 02:06:23;;;;;;;33.80;14.55;;;;;;;1.09;100.00;98564.63;5064184;28;20024;-77
2024/02/18 02:08:55;;;;;;;37.28;15.10;;;;;;;1.11;100.00;98568.09;5068931;28;20085;-76
2024/02/18 02:11:21;;;;;;;31.45;14.88;;;;;;;1.09;100.00;98554.97;5054564;28;20037;-77
2024/02/18 02:13:47;;;;;;;40.28;17.15;;;;;;;1.26;100.00;98586.41;5073035;28;20475;-77
2024/02/18 02:16:14;;;;;;;44.90;18.90;;;;;;;1.26;100.00;98583.78;5072411;28;20457;-77
2024/02/18 02:18:40;;;;;;;39.83;17.75;;;;;;;1.32;100.00;98583.75;5071560;28;20020;-77
2024/02/18 02:21:05;;;;;;;45.22;16.73;;;;;;;1.29;100.00;98582.91;5054736;28;20507;-77
2024/02/18 02:23:32;;;;;;;45.38;17.98;;;;;;;1.22;100.00;98579.44;5064835;28;20047;-77
2024/02/18 02:25:57;;;;;;;42.85;19.98;;;;;;;1.25;100.00;98594.34;5069275;28;20052;-77
2024/02/18 02:28:25;;;;;;;40.70;18.98;;;;;;;1.23;100.00;98594.34;5054737;28;20036;-77
2024/02/18 02:30:51;;;;;;;38.05;18.02;;;;;;;1.24;100.00;98606.63;5054339;28;20032;-77
2024/02/18 02:33:21;;;;;;;40.95;16.98;;;;;;;1.18;100.00;98601.41;5079038;28;20032;-76
2024/02/18 02:35:48;;;;;;;41.80;17.92;;;;;;;1.17;100.00;98607.56;5091363;28;20023;-78
2024/02/18 02:38:14;;;;;;;36.15;15.02;;;;;;;1.08;100.00;98605.00;5074440;28;20419;-78
2024/02/18 02:40:40;;;;;;;26.60;13.77;;;;;;;0.94;100.00;98599.84;5090926;28;20035;-76
2024/02/18 02:43:06;;;;;;;30.13;14.82;;;;;;;0.87;100.00;98599.91;5059916;28;20040;-78
2024/02/18 02:45:32;;;;;;;35.55;15.60;;;;;;;0.96;100.00;98607.72;5054360;28;20039;-78
2024/02/18 02:47:57;;;;;;;31.17;15.75;;;;;;;1.00;100.00;98606.84;5072790;28;20501;-78
2024/02/18 02:50:32;;;;;;;40.08;16.60;;;;;;;0.97;100.00;98597.19;5080219;28;20111;-78
2024/02/18 02:53:00;;;;;;;34.85;17.00;;;;;;;0.97;100.00;98588.41;5057966;28;20617;-78
2024/02/18 02:55:26;;;;;;;33.35;16.08;;;;;;;0.84;100.00;98590.25;5082584;28;20076;-76
2024/02/18 02:57:53;;;;;;;35.58;16.73;;;;;;;0.92;100.00;98608.66;5064683;28;20453;-76
2024/02/18 03:00:19;;;;;;;33.55;15.25;;;;;;;0.86;100.00;98614.81;5056881;28;20115;-77
2024/02/18 03:02:44;;;;;;;36.50;14.90;;;;;;;0.84;100.00;98602.53;5056420;28;20480;-77
2024/02/18 03:05:10;;;;;;;31.67;15.02;;;;;;;0.72;100.00;98600.00;5059744;28;20137;-76
2024/02/18 03:07:39;;;;;;;38.47;16.65;;;;;;;0.54;100.00;98611.50;5060567;28;20381;-76
2024/02/18 03:10:05;;;;;;;37.92;18.02;;;;;;;0.27;100.00;98599.38;5071345;28;20035;-77
2024/02/18 03:12:31;;;;;;;45.45;19.17;;;;;;;0.38;100.00;98609.84;5053616;28;20035;-77
2024/02/18 03:14:56;;;;;;;55.38;18.77;;;;;;;0.29;100.00;98608.13;5069840;28;20036;-77
2024/02/18 03:17:22;;;;;;;46.25;18.70;;;;;;;0.29;100.00;98599.34;5066167;28;20028;-76
2024/02/18 03:19:48;;;;;;;46.05;19.05;;;;;;;0.30;100.00;98606.38;5062869;28;20079;-76
2024/02/18 03:22:21;;;;;;;41.72;17.70;;;;;;;0.32;100.00;98599.34;5069903;28;20496;-76
2024/02/18 03:24:50;;;;;;;40.55;19.40;;;;;;;0.29;100.00;98610.75;5072293;28;20021;-76
2024/02/18 03:27:17;;;;;;;48.30;21.67;;;;;;;0.41;100.00;98610.69;5073275;28;20511;-76
2024/02/18 03:29:44;;;;;;;38.25;17.55;;;;;;;0.40;100.00;98602.81;5073389;28;20032;-76
2024/02/18 03:32:10;;;;;;;43.13;19.55;;;;;;;0.41;100.00;98610.69;5059863;28;20024;-77
2024/02/18 03:34:36;;;;;;;49.35;21.90;;;;;;;0.41;100.00;98615.97;5058880;28;20404;-77
2024/02/18 03:37:01;;;;;;;43.00;19.55;;;;;;;0.48;100.00;98620.31;5084926;28;20068;-78
2024/02/18 03:39:27;;;;;;;48.80;20.63;;;;;;;0.53;100.00;98621.16;5090407;28;20502;-77
2024/02/18 03:41:53;;;;;;;42.20;20.73;;;;;;;0.48;100.00;98617.69;5057017;28;20033;-77
2024/02/18 03:44:18;;;;;;;46.22;20.30;;;;;;;0.46;100.00;98611.53;5067305;28;20085;-77
2024/02/18 03:46:44;;;;;;;41.55;20.67;;;;;;;0.54;100.00;98627.31;5066462;28;20024;-77
2024/02/18 03:49:10;;;;;;;61.00;27.00;;;;;;;0.47;100.00;98628.22;5062894;28;20268;-77
2024/02/18 03:51:35;;;;;;;52.38;24.90;;;;;;;0.48;100.00;98622.94;5075814;28;20036;-77
2024/02/18 03:54:01;;;;;;;58.85;25.27;;;;;;;0.55;100.00;98619.38;5053066;28;20119;-77
2024/02/18 03:56:26;;;;;;;49.92;23.08;;;;;;;0.35;100.00;98610.72;5089710;28;20024;-76
2024/02/18 03:58:52;;;;;;;42.80;20.50;;;;;;;0.38;100.00;98625.63;5072908;28;20043;-77
2024/02/18 04:01:18;;;;;;;43.78;19.92;;;;;;;0.22;100.00;98619.53;5070235;28;20115;-77
2024/02/18 04:03:43;;;;;;;52.25;23.52;;;;;;;0.31;100.00;98635.28;5061456;28;20028;-77
2024/02/18 04:06:09;;;;;;;71.75;28.55;;;;;;;0.26;100.00;98625.69;5060930;28;20028;-77
2024/02/18 04:08:34;;;;;;;63.13;29.58;;;;;;;0.32;100.00;98629.16;5058927;28;20024;-77
2024/02/18 04:11:00;;;;;;;61.10;26.95;;;;;;;0.27;100.00;98622.16;5065402;28;20040;-76
2024/02/18 04:13:27;;;;;;;60.05;25.70;;;;;;;0.26;100.00;98630.94;5061014;28;20121;-77
2024/02/18 04:15:52;;;;;;;60.30;26.30;;;;;;;0.26;100.00;98644.09;5069431;28;20341;-78
2024/02/18 04:18:18;;;;;;;56.83;25.00;;;;;;;0.25;100.00;98623.91;5089371;28;20179;-77
2024/02/18 04:20:43;;;;;;;43.78;18.88;;;;;;;0.16;100.00;98621.31;5083976;28;20021;-77
2024/02/18 04:23:09;;;;;;;41.25;18.83;;;;;;;0.18;100.00;98628.34;5052281;28;20043;-76
2024/02/18 04:25:35;;;;;;;40.05;19.60;;;;;;;0.23;100.00;98629.19;5075927;28;20051;-76
2024/02/18 04:28:01;;;;;;;54.40;23.90;;;;;;;0.16;100.00;98629.22;5071939;28;20032;-78
2024/02/18 04:30:26;;;;;;;68.13;25.33;;;;;;;-0.01;100.00;98617.00;5056461;28;20020;-77
2024/02/18 04:32:52;;;;;;;51.65;22.52;;;;;;;-0.07;100.00;98603.88;5072578;28;20519;-77
2024/02/18 04:35:17;;;;;;;46.72;21.15;;;;;;;-0.18;100.00;98615.28;5086355;28;20036;-77
2024/02/18 04:37:43;;;;;;;57.22;24.40;;;;;;;-0.16;100.00;98624.06;5057371;28;20035;-77
2024/02/18 04:40:09;;;;;;;53.60;23.48;;;;;;;-0.31;100.00;98617.09;5072346;28;20383;-78
2024/02/18 04:42:35;;;;;;;50.75;22.52;;;;;;;-0.39;100.00;98623.22;5057652;28;20086;-77
2024/02/18 04:45:01;;;;;;;55.13;21.75;;;;;;;-0.43;100.00;98627.59;5072230;28;20055;-77
2024/02/18 04:47:26;;;;;;;41.85;20.02;;;;;;;-0.49;100.00;98627.59;5055768;28;20028;-76
2024/02/18 04:49:52;;;;;;;44.33;20.00;;;;;;;-0.55;100.00;98618.00;5072163;28;20100;-76
2024/02/18 04:52:18;;;;;;;41.47;19.83;;;;;;;-0.49;100.00;98632.00;5071026;28;20384;-76
2024/02/18 04:54:43;;;;;;;43.20;20.77;;;;;;;-0.56;100.00;98625.88;5066392;28;20496;-76
2024/02/18 04:57:09;;;;;;;48.53;20.45;;;;;;;-0.61;100.00;98625.88;5072393;28;20048;-77
2024/02/18 04:59:35;;;;;;;41.42;20.08;;;;;;;-0.58;100.00;98636.38;5078859;28;20035;-76
2024/02/18 05:02:01;;;;;;;41.35;19.05;;;;;;;-0.55;100.00;98630.25;5064200;28;20024;-77
2024/02/18 05:04:30;;;;;;;46.70;19.48;;;;;;;-0.64;100.00;98628.50;5058078;28;20536;-76
2024/02/18 05:06:56;;;;;;;45.70;18.95;;;;;;;-0.59;100.00;98637.28;5077668;28;20046;-76
2024/02/18 05:09:22;;;;;;;50.33;21.20;;;;;;;-0.60;100.00;98635.50;5057141;28;20024;-78
2024/02/18 05:11:47;;;;;;;49.60;22.60;;;;;;;-0.64;100.00;98633.75;5077349;28;20388;-76
2024/02/18 05:14:13;;;;;;;49.92;21.77;;;;;;;-0.60;100.00;98635.50;5093606;28;20024;-81
2024/02/18 05:16:38;;;;;;;54.28;21.90;;;;;;;-0.58;100.00;98635.50;5076081;28;20502;-79
2024/02/18 05:19:04;;;;;;;63.55;22.45;;;;;;;-0.64;100.00;98638.13;5091746;28;20020;-78
2024/02/18 05:21:30;;;;;;;45.25;19.85;;;;;;;-0.61;100.00;98654.78;5081711;28;20507;-79
2024/02/18 05:23:57;;;;;;;40.28;18.30;;;;;;;-0.66;100.00;98637.25;5074605;28;20043;-82
2024/02/18 05:26:25;;;;;;;141.93;21.60;;;;;;;-0.67;100.00;98652.16;5075103;28;20054;-79
2024/02/18 05:28:51;;;;;;;55.88;19.70;;;;;;;-0.61;100.00;98654.78;5070389;28;20120;-79
2024/02/18 05:31:26;;;;;;;68.95;20.92;;;;;;;-0.62;100.00;98652.16;5092658;28;20477;-79
2024/02/18 05:33:52;;;;;;;58.25;20.58;;;;;;;-0.49;100.00;98663.53;5075663;28;20024;-79
2024/02/18 05:36:20;;;;;;;43.78;20.92;;;;;;;-0.48;100.00;98646.88;5088971;28;20488;-78
2024/02/18 05:38:45;;;;;;;57.78;21.98;;;;;;;-0.55;100.00;98639.00;5072552;28;20440;-78
2024/02/18 05:41:11;;;;;;;65.72;23.33;;;;;;;-0.29;100.00;98667.03;5072400;28;20028;-78
2024/02/18 05:43:37;;;;;;;93.85;22.13;;;;;;;-0.32;100.00;98662.66;5071848;28;20479;-78
2024/02/18 05:46:03;;;;;;;56.08;23.13;;;;;;;-0.25;100.00;98658.25;5068175;28;20024;-79
2024/02/18 05:48:28;;;;;;;85.95;21.83;;;;;;;-0.13;100.00;98674.91;5065518;28;20024;-79
2024/02/18 05:50:55;;;;;;;99.60;25.13;;;;;;;-0.10;100.00;98680.16;5075126;28;20456;-79
2024/02/18 05:53:21;;;;;;;55.13;23.33;;;;;;;0.06;100.00;98681.00;5092487;28;20389;-79
2024/02/18 05:55:46;;;;;;;66.03;27.15;;;;;;;0.09;100.00;98675.72;5065284;28;20036;-79
2024/02/18 05:58:12;;;;;;;76.18;26.08;;;;;;;0.26;100.00;98673.91;5056767;28;20107;-80
2024/02/18 06:00:38;;;;;;;73.10;26.98;;;;;;;0.43;100.00;98695.75;5058472;28;20039;-79
2024/02/18 06:03:05;;;;;;;72.18;27.45;;;;;;;0.48;100.00;98691.38;5086652;28;20032;-79
2024/02/18 06:05:33;;;;;;;80.07;26.33;;;;;;;0.59;100.00;98662.38;5081569;28;20503;-78
2024/02/18 06:07:59;;;;;;;79.00;26.55;;;;;;;0.92;100.00;98693.78;5066920;28;20137;-79
2024/02/18 06:10:27;;;;;;;96.28;26.73;;;;;;;1.18;100.00;98698.03;5065604;28;20046;-78
2024/02/18 06:13:03;;;;;;;96.05;32.72;;;;;;;1.48;100.00;98690.78;5073290;28;20182;-78
2024/02/18 06:15:33;;;;;;;156.93;52.17;;;;;;;1.50;100.00;98686.38;5064113;28;20092;-80
2024/02/18 06:18:04;;;;;;;106.95;39.17;;;;;;;1.56;100.00;98688.97;5054974;28;20255;-80
2024/02/18 06:20:31;;;;;;;89.28;36.78;;;;;;;1.72;100.00;98683.56;5055163;28;20071;-79
2024/02/18 06:22:57;;;;;;;68.13;27.55;;;;;;;1.91;100.00;98690.41;5063176;28;20029;-81
2024/02/18 06:25:23;;;;;;;72.68;29.70;;;;;;;1.88;100.00;98682.53;5068623;28;20104;-81
2024/02/18 06:27:50;;;;;;;72.45;28.70;;;;;;;1.96;100.00;98678.06;5056804;28;20021;-81
2024/02/18 06:30:16;;;;;;;85.90;32.92;;;;;;;2.43;100.00;98681.06;5068873;28;20028;-78
2024/02/18 06:32:42;;;;;;;80.30;33.50;;;;;;;3.51;100.00;98682.22;5072846;28;20039;-78
2024/02/18 06:35:11;;;;;;;73.68;31.33;;;;;;;3.74;100.00;98677.44;5088255;28;20020;-78
2024/02/18 06:37:36;;;;;;;76.43;31.15;;;;;;;3.51;100.00;98667.22;5078288;28;20028;-79
2024/02/18 06:40:02;;;;;;;66.35;28.83;;;;;;;3.28;100.00;98664.94;5056007;28;20029;-77
2024/02/18 06:42:28;;;;;;;79.60;31.67;;;;;;;3.05;100.00;98682.03;5055716;28;20028;-80
2024/02/18 06:44:54;;;;;;;62.97;25.95;;;;;;;2.78;100.00;98687.69;5070470;28;20028;-79
2024/02/18 06:47:19;;;;;;;60.42;26.55;;;;;;;2.68;100.00;98687.78;5068593;28;20477;-79
2024/02/18 06:49:45;;;;;;;61.55;24.83;;;;;;;2.70;100.00;98675.47;5061623;28;20035;-79
2024/02/18 06:52:13;;;;;;;61.15;25.88;;;;;;;2.73;100.00;98691.28;5070100;28;20028;-79
2024/02/18 06:54:39;;;;;;;61.42;25.85;;;;;;;2.71;100.00;98682.47;5060884;28;20051;-80
2024/02/18 06:57:04;;;;;;;69.60;27.20;;;;;;;2.85;100.00;98695.53;5068953;28;20531;-85
2024/02/18 06:59:30;;;;;;;63.90;26.77;;;;;;;2.79;100.00;98689.44;5084398;28;20039;-76
2024/02/18 07:01:55;;;;;;;63.00;26.75;;;;;;;3.15;100.00;98676.59;5062601;28;20072;-76
2024/02/18 07:04:24;;;;;;;61.30;27.65;;;;;;;3.41;100.00;98684.16;5061162;28;20028;-78
2024/02/18 07:06:49;;;;;;;75.85;31.50;;;;;;;3.77;100.00;98687.97;5084756;28;20032;-78
2024/02/18 07:09:15;;;;;;;92.10;37.58;;;;;;;4.10;100.00;98683.84;5070727;28;20381;-79
2024/02/18 07:11:40;;;;;;;100.00;45.60;;;;;;;4.15;100.00;98688.16;5062590;28;20151;-78
2024/02/18 07:14:06;;;;;;;97.15;44.20;;;;;;;4.55;100.00;98687.44;5053541;28;20040;-78
2024/02/18 07:16:32;;;;;;;94.13;41.40;;;;;;;5.09;100.00;98682.75;5057012;28;20036;-78
2024/02/18 07:18:57;;;;;;;86.28;39.40;;;;;;;4.84;100.00;98677.97;5071073;28;20040;-78
2024/02/18 07:21:23;;;;;;;85.82;38.92;;;;;;;4.54;100.00;98675.97;5075557;28;20115;-78
2024/02/18 07:23:50;;;;;;;83.43;37.55;;;;;;;4.40;100.00;98683.28;5075301;28;20082;-78
2024/02/18 07:26:16;;;;;;;82.53;39.30;;;;;;;4.20;100.00;98680.16;5053617;28;20075;-78
2024/02/18 07:28:42;;;;;;;103.03;43.03;;;;;;;3.97;100.00;98683.19;5055001;28;20480;-77
2024/02/18 07:31:08;;;;;;;80.15;38.03;;;;;;;3.81;100.00;98685.22;5055397;28;20040;-83
2024/02/18 07:33:34;;;;;;;103.07;45.47;;;;;;;3.77;100.00;98678.25;5058102;28;20131;-78
2024/02/18 07:35:59;;;;;;;90.50;41.58;;;;;;;3.78;100.00;98687.94;5067622;28;20027;-78
2024/02/18 07:38:26;;;;;;;91.68;43.53;;;;;;;3.83;100.00;98680.81;5070710;28;20059;-77
2024/02/18 07:40:55;;;;;;;103.15;46.65;;;;;;;3.66;100.00;98680.19;5064031;28;20044;-78
2024/02/18 07:43:21;;;;;;;112.60;48.33;;;;;;;3.69;100.00;98689.88;5076607;28;20088;-77
2024/02/18 07:45:47;;;;;;;119.97;55.28;;;;;;;3.72;100.00;98680.09;5065287;28;20380;-78
2024/02/18 07:48:13;;;;;;;110.40;47.63;;;;;;;3.75;100.00;98676.56;5059771;28;20097;-79
2024/02/18 07:50:39;;;;;;;112.72;51.55;;;;;;;3.62;100.00;98697.03;5059902;28;20032;-78
2024/02/18 07:53:05;;;;;;;195.25;79.22;;;;;;;3.30;100.00;98694.00;5059056;28;20033;-78
2024/02/18 07:55:31;;;;;;;122.45;53.72;;;;;;;3.32;100.00;98696.63;5061967;28;20134;-78
2024/02/18 07:57:57;;;;;;;120.88;54.22;;;;;;;3.33;100.00;98699.25;5055571;28;20067;-78
2024/02/18 08:00:23;;;;;;;124.63;54.40;;;;;;;3.38;100.00;98702.72;5055558;28;20465;-78
2024/02/18 08:02:49;;;;;;;142.15;59.13;;;;;;;3.46;100.00;98706.09;5080610;28;20107;-79
2024/02/18 08:05:14;;;;;;;141.77;60.10;;;;;;;3.25;100.00;98702.00;5069231;28;20040;-79
2024/02/18 08:07:40;;;;;;;133.55;58.10;;;;;;;3.46;100.00;98699.94;5063947;28;20102;-78
2024/02/18 08:10:06;;;;;;;110.47;50.15;;;;;;;3.56;100.00;98701.53;5081251;28;20042;-78
2024/02/18 08:12:32;;;;;;;103.13;46.67;;;;;;;3.52;100.00;98690.13;5059105;28;20024;-79
2024/02/18 08:14:58;;;;;;;93.50;42.95;;;;;;;3.63;100.00;98698.75;5058460;28;20108;-78
2024/02/18 08:17:24;;;;;;;90.13;41.08;;;;;;;3.62;100.00;98701.44;5055669;28;20425;-82
2024/02/18 08:19:49;;;;;;;88.63;41.42;;;;;;;3.48;100.00;98695.47;5060837;28;20028;-76
2024/02/18 08:22:15;;;;;;;91.03;40.72;;;;;;;3.58;100.00;98697.97;5088818;28;20028;-77
2024/02/18 08:24:43;;;;;;;145.93;70.07;;;;;;;3.76;100.00;98699.44;5085800;28;20412;-79
2024/02/18 08:27:09;;;;;;;80.20;36.45;;;;;;;3.88;100.00;98698.38;5060745;28;20048;-79
2024/02/18 08:29:37;;;;;;;80.03;36.58;;;;;;;4.04;100.00;98700.72;5078718;28;20032;-78
2024/02/18 08:32:03;;;;;;;59.25;28.60;;;;;;;4.02;100.00;98686.66;5085060;28;20521;-79
2024/02/18 08:34:29;;;;;;;80.75;35.85;;;;;;;4.06;100.00;98693.63;5069090;28;20414;-75
2024/02/18 08:36:56;;;;;;;78.88;37.45;;;;;;;4.10;100.00;98687.38;5085473;28;20150;-82
2024/02/18 08:39:22;;;;;;;69.93;30.23;;;;;;;4.29;100.00;98693.22;5085761;28;20464;-79
2024/02/18 08:41:47;;;;;;;79.57;33.28;;;;;;;4.50;100.00;98699.88;5058093;28;20424;-79
2024/02/18 08:44:14;;;;;;;108.93;40.22;;;;;;;4.38;100.00;98687.75;5088044;28;20047;-79
2024/02/18 08:46:49;;;;;;;80.97;35.22;;;;;;;4.45;100.00;98697.31;5070540;28;20032;-79
2024/02/18 08:49:15;;;;;;;86.00;37.35;;;;;;;4.57;100.00;98696.22;5077667;28;20032;-80
2024/02/18 08:51:40;;;;;;;75.68;37.97;;;;;;;4.69;100.00;98691.53;5072544;28;20123;-80
2024/02/18 08:54:06;;;;;;;92.75;40.42;;;;;;;4.94;100.00;98699.84;5057906;28;20123;-85
2024/02/18 08:56:32;;;;;;;90.50;44.78;;;;;;;4.96;100.00;98708.66;5081208;28;20032;-78
2024/02/18 08:58:58;;;;;;;122.97;57.50;;;;;;;4.97;100.00;98688.31;5059210;28;20028;-78
2024/02/18 09:01:23;;;;;;;199.73;95.10;;;;;;;5.05;100.00;98702.25;5053514;28;20032;-80
2024/02/18 09:03:49;;;;;;;186.27;88.88;;;;;;;5.04;100.00;98704.06;5065816;28;20381;-81
2024/02/18 09:06:15;;;;;;;120.00;54.28;;;;;;;5.04;100.00;98689.94;5076143;28;20463;-80
2024/02/18 09:08:42;;;;;;;115.70;52.45;;;;;;;5.03;100.00;98701.44;5074846;28;20275;-81
2024/02/18 09:11:08;;;;;;;116.07;54.42;;;;;;;5.02;100.00;98697.91;5055786;28;20094;-81
2024/02/18 09:13:33;;;;;;;125.80;56.95;;;;;;;5.10;100.00;98692.44;5051079;28;20483;-81
2024/02/18 09:15:59;;;;;;;124.25;53.45;;;;;;;5.18;100.00;98695.81;5065875;28;20539;-81
2024/02/18 09:18:24;;;;;;;113.55;52.45;;;;;;;5.22;100.00;98702.78;5053396;28;20024;-81
2024/02/18 09:20:50;;;;;;;127.72;58.55;;;;;;;4.94;100.00;98702.50;5063226;28;20035;-82
2024/02/18 09:23:16;;;;;;;124.32;53.88;;;;;;;5.07;100.00;98697.81;5064649;28;20093;-79
2024/02/18 09:25:42;;;;;;;116.25;53.45;;;;;;;5.19;100.00;98692.25;5077614;28;20422;-78
2024/02/18 09:28:09;;;;;;;129.32;59.58;;;;;;;5.12;100.00;98691.50;5083770;28;20161;-76
2024/02/18 09:30:38;;;;;;;134.15;57.47;;;;;;;5.19;100.00;98693.13;5073570;28;20165;-80
2024/02/18 09:33:06;;;;;;;105.53;50.13;;;;;;;5.28;100.00;98707.97;5066139;28;20084;-82
2024/02/18 09:35:32;;;;;;;82.63;41.00;;;;;;;5.18;100.00;98695.81;5055076;28;20404;-79
2024/02/18 09:37:58;;;;;;;61.75;31.52;;;;;;;5.07;100.00;98698.69;5061304;28;20032;-79
2024/02/18 09:40:23;;;;;;;59.45;30.35;;;;;;;5.04;100.00;98695.25;5064429;28;20028;-79
2024/02/18 09:42:52;;;;;;;60.40;28.50;;;;;;;5.24;100.00;98690.34;5055347;28;20048;-81
2024/02/18 09:45:25;;;;;;;55.13;26.90;;;;;;;5.36;100.00;98684.78;5051662;28;20025;-81
2024/02/18 09:47:56;;;;;;;55.78;28.85;;;;;;;5.51;100.00;98679.09;5059903;28;20029;-80
2024/02/18 09:50:22;;;;;;;64.30;30.40;;;;;;;5.75;100.00;98678.50;5052659;28;20107;-81
2024/02/18 09:52:48;;;;;;;77.60;37.53;;;;;;;6.13;100.00;98668.72;5062811;28;20114;-81
2024/02/18 09:55:27;;;;;;;66.28;34.13;;;;;;;6.48;100.00;98668.66;5075017;28;20032;-81
2024/02/18 09:57:52;;;;;;;74.15;35.28;;;;;;;6.66;100.00;98665.50;5058939;28;20032;-81
2024/02/18 10:00:19;;;;;;;75.82;38.17;;;;;;;7.00;100.00;98665.38;5055074;28;20447;-80
2024/02/18 10:05:43;;;;;;;86.93;42.47;;;;;;;7.56;100.00;98643.22;5076000;28;20032;-80
2024/02/18 10:08:09;;;;;;;95.93;46.42;;;;;;;7.89;100.00;98643.88;5074842;28;20435;-80
2024/02/18 10:10:35;;;;;;;103.47;49.63;;;;;;;7.81;100.00;98631.75;5074832;28;20024;-80
2024/02/18 10:13:02;;;;;;;104.30;49.67;;;;;;;8.12;100.00;98629.78;5074624;28;20031;-79
2024/02/18 10:15:28;;;;;;;88.78;45.03;;;;;;;9.03;100.00;98627.31;5070467;28;20107;-80
2024/02/18 10:17:53;;;;;;;114.00;55.53;;;;;;;10.14;100.00;98620.13;5054693;28;20016;-80
2024/02/18 10:20:19;;;;;;;101.05;52.17;;;;;;;10.36;100.00;98620.06;5054714;28;20028;-82
2024/02/18 10:22:45;;;;;;;124.00;62.85;;;;;;;10.31;100.00;98609.56;5054947;28;20051;-81
2024/02/18 10:25:10;;;;;;;110.53;56.53;;;;;;;10.34;100.00;98606.75;5062747;28;20066;-81
2024/02/18 10:27:37;;;;;;;113.03;57.40;;;;;;;10.72;100.00;98613.06;5063167;28;20377;-81
2024/02/18 10:30:03;;;;;;;129.40;63.88;;;;;;;10.51;100.00;98598.84;5063026;28;20507;-81
2024/02/18 10:32:30;;;;;;;128.00;65.05;;;;;;;10.88;100.00;98595.38;5063105;28;20024;-80
2024/02/18 10:34:56;;;;;;;119.10;62.20;;;;;;;11.15;100.00;98583.34;5054922;28;20024;-81
2024/02/18 10:37:32;;;;;;;114.65;56.60;;;;;;;11.97;100.00;98581.97;5082130;28;20032;-82
2024/02/18 10:40:13;;;;;;;107.75;57.20;;;;;;;12.01;100.00;98524.56;5066886;28;20020;-81
2024/02/18 10:42:49;;;;;;;115.35;59.50;;;;;;;12.84;100.00;98568.38;5076448;28;20024;-80
2024/02/18 10:45:15;;;;;;;107.18;57.17;;;;;;;13.33;94.81;98539.66;5073135;28;20028;-81
2024/02/18 10:47:44;;;;;;;99.85;51.25;;;;;;;13.95;90.37;98551.28;5054676;28;20027;-81
2024/02/18 10:50:13;;;;;;;99.80;51.83;;;;;;;15.02;85.15;98547.28;5062725;28;20102;-80
2024/02/18 10:52:59;;;;;;;95.78;53.03;;;;;;;15.33;81.80;98537.22;5054372;28;20813;-81
2024/02/18 10:55:34;;;;;;;100.20;55.30;;;;;;;15.15;84.08;98541.97;5064140;28;20423;-80
2024/02/18 10:58:05;;;;;;;99.07;54.85;;;;;;;14.97;80.53;98537.78;5082664;28;20028;-80
2024/02/18 11:00:32;;;;;;;91.30;46.28;;;;;;;14.30;88.12;98546.47;5073407;28;20063;-80
2024/02/18 11:03:15;;;;;;;67.35;36.40;;;;;;;14.02;92.82;98545.47;5058696;28;20035;-80
2024/02/18 11:05:41;;;;;;;56.95;30.00;;;;;;;13.51;97.24;98552.06;5070626;28;20082;-80
2024/02/18 11:08:07;;;;;;;43.63;26.38;;;;;;;13.74;100.00;98541.78;5070118;28;20450;-79
2024/02/18 11:10:35;;;;;;;48.40;26.35;;;;;;;14.93;96.68;98530.84;5062003;28;20025;-79
2024/02/18 11:13:03;;;;;;;51.78;29.75;;;;;;;17.69;72.65;98502.47;5062138;28;20021;-80
2024/02/18 11:15:28;;;;;;;48.47;27.77;;;;;;;19.32;56.18;98485.00;5064224;28;20408;-80